セブ の空港の天気 - METARとTAF

マクタン・セブ国際空港 ( RPVM / CEB ) - フィリピン セブ / ラプ=ラプ
飛行場実況気象(Metar)
観測時間10/19 07:00 PHT (10/18 23:00 UTC)
風向・風速西南西 4m/s
視程10km以上
天気現象
少しの雲 雲底高度 610m
全天を覆う雲 雲底高度 2740m
気温26℃
湿度89%
気圧1006hPa
METARRPVM 182300Z 25007KT 9999 FEW020 OVC090 26/24 Q1006 NOSIG RMK A2971
過去の天気等 Google飛行場航空写真 Wunderground天気予報

過去48時間のMETAR

飛行場予報(TAF)
発表時間: 10/19 07:00 PHT (10/18 23:00 UTC)
予報対象時間: 19日8時 PHT ~ 20日14時 PHT
風向・風速西南西 5m/s
視程10km以上
少しの雲 雲底高度 610m
全天の8割程度の雲 雲底高度 9,140m
19日8時 PHT ~ 19日14時 PHT に一時的に
風向・風速南西 6m/s
視程6,000m
天気現象雷雨
少しの積乱雲 雲底高度 550m
全天の4割程度の雲 雲底高度 610m
全天を覆う雲 雲底高度 2,740m
19日14時 PHT ~ 19日20時 PHT に一時的に
風向・風速南南西 6m/s
視程8,000m
天気現象弱い雷雨
少しの積乱雲 雲底高度 550m
少しの雲 雲底高度 610m
全天の8割程度の雲 雲底高度 3,050m
TAF RPVM 182300Z 1900/2006 24010KT 9999 FEW020 BKN300
TEMPO 1900/1906 22012KT 6000 TSRA FEW018CB SCT020 OVC090
TEMPO 1906/1912 20012KT 8000 -TSRA FEW018CB FEW020 BKN100